Terminal Aerodrome Forecast
Issued by NWS Cleveland, OH

Home | Current Version | Previous Version | Graphics & Text | Print | Product List | Glossary On
Versions: 1 2 3 4 5 6 7 8 9 10 11 12 13 14 15 16 17 18 19 20 21 22 23 24 25 26 27 28
000
FTUS41 KCLE 150200 AAA
TAFCLE
TAF AMD
KCLE 150246Z 1503/1606 16003KT P6SM FEW100
     FM151400 20008KT P6SM SCT100 BKN250
     FM151900 20008KT P6SM BKN060 OVC100
     FM152100 22008KT P6SM -RA OVC045
     FM152300 22008KT 4SM -RA BR OVC030=

USA.gov is the U.S. government's official web portal to all federal, state and local government web resources and services.